Terminal Aerodrome Forecast
Issued by NWS

Home | Current Version | Previous Version | Text Only | Print | Product List | Glossary On
Versions: 1 2 3 4 5 6 7 8 9 10 11 12 13 14 15 16 17 18 19 20 21
746
FTUS43 KSGF 281357 AAB
TAFJLN
TAF AMD
KJLN 281357Z 2814/2912 34005KT P6SM BKN015
     FM281600 34007KT P6SM SCT060 SCT200
     FM290200 VRB04KT P6SM SKC=

USA.gov is the U.S. government's official web portal to all federal, state and local government web resources and services.